Indian Hill, Texas
Current Conditions -  °F | °C
As of 1:55 AM on Thursday 23 Oct 2014 (Local Time) from KJAS Reporting Station
Clear Clear  
Wind Chill: 58°   Ceiling: Unl
Heat Index: 58°   Visibility: 10mi
Dew Point: 52°   Wind: 3mph
Humidity: 80%   Direction: 60°ENE
Pressure: 30.13"   Gusts: NA
Location:  31.0751°N, 93.8073°W
Report Text: KJAS 230655Z AUTO 06003KT 10SM CLR 15/11 A3013 RMK AO2 T01450110
Loading
Personal Weather Stations






























Interactive Weather Map
Tropical Storm Tracking
New forecast layout! Learn more

10-Day Weather Forecast

Advertisements
Track Severe Weather on mobile